sensor_id;sensor_type;location;lat;lon;timestamp;P1;durP1;ratioP1;P2;durP2;ratioP2
30647;SDS011;17683;53.360;9.736;2024-01-30T00:01:58;9.35;;;7.53;;
30647;SDS011;17683;53.360;9.736;2024-01-30T00:04:24;9.73;;;7.25;;
30647;SDS011;17683;53.360;9.736;2024-01-30T00:06:50;10.27;;;7.15;;
30647;SDS011;17683;53.360;9.736;2024-01-30T00:09:17;9.10;;;6.63;;
30647;SDS011;17683;53.360;9.736;2024-01-30T00:11:43;11.82;;;7.22;;
30647;SDS011;17683;53.360;9.736;2024-01-30T00:14:09;10.35;;;7.03;;
30647;SDS011;17683;53.360;9.736;2024-01-30T00:16:35;10.95;;;7.22;;
30647;SDS011;17683;53.360;9.736;2024-01-30T00:19:00;11.57;;;7.28;;
30647;SDS011;17683;53.360;9.736;2024-01-30T00:21:27;10.85;;;7.28;;
30647;SDS011;17683;53.360;9.736;2024-01-30T00:23:53;12.52;;;7.57;;
30647;SDS011;17683;53.360;9.736;2024-01-30T00:26:18;8.32;;;6.90;;
30647;SDS011;17683;53.360;9.736;2024-01-30T00:28:45;9.15;;;6.88;;
30647;SDS011;17683;53.360;9.736;2024-01-30T00:31:11;12.00;;;7.43;;
30647;SDS011;17683;53.360;9.736;2024-01-30T00:33:40;13.32;;;7.05;;
30647;SDS011;17683;53.360;9.736;2024-01-30T00:36:07;9.93;;;7.05;;
30647;SDS011;17683;53.360;9.736;2024-01-30T00:38:34;11.02;;;6.93;;
30647;SDS011;17683;53.360;9.736;2024-01-30T00:41:01;9.30;;;6.63;;
30647;SDS011;17683;53.360;9.736;2024-01-30T00:43:29;9.23;;;6.55;;
30647;SDS011;17683;53.360;9.736;2024-01-30T00:45:56;10.73;;;7.13;;
30647;SDS011;17683;53.360;9.736;2024-01-30T00:48:23;11.93;;;6.93;;
30647;SDS011;17683;53.360;9.736;2024-01-30T00:50:48;8.32;;;6.22;;
30647;SDS011;17683;53.360;9.736;2024-01-30T00:53:14;10.57;;;6.50;;
30647;SDS011;17683;53.360;9.736;2024-01-30T00:55:40;8.20;;;6.90;;
30647;SDS011;17683;53.360;9.736;2024-01-30T00:58:06;8.68;;;6.90;;
30647;SDS011;17683;53.360;9.736;2024-01-30T01:00:32;9.32;;;6.13;;
30647;SDS011;17683;53.360;9.736;2024-01-30T01:03:00;8.45;;;6.07;;
30647;SDS011;17683;53.360;9.736;2024-01-30T01:05:26;10.52;;;6.05;;
30647;SDS011;17683;53.360;9.736;2024-01-30T01:07:52;11.13;;;7.05;;
30647;SDS011;17683;53.360;9.736;2024-01-30T01:10:18;11.93;;;6.85;;
30647;SDS011;17683;53.360;9.736;2024-01-30T01:12:44;10.23;;;6.55;;
30647;SDS011;17683;53.360;9.736;2024-01-30T01:15:11;9.25;;;6.60;;
30647;SDS011;17683;53.360;9.736;2024-01-30T01:17:37;8.40;;;6.07;;
30647;SDS011;17683;53.360;9.736;2024-01-30T01:20:04;8.50;;;6.45;;
30647;SDS011;17683;53.360;9.736;2024-01-30T01:22:31;11.82;;;6.78;;
30647;SDS011;17683;53.360;9.736;2024-01-30T01:24:58;12.77;;;6.90;;
30647;SDS011;17683;53.360;9.736;2024-01-30T01:27:24;11.43;;;6.82;;
30647;SDS011;17683;53.360;9.736;2024-01-30T01:29:50;9.07;;;6.18;;
30647;SDS011;17683;53.360;9.736;2024-01-30T01:32:16;12.48;;;7.22;;
30647;SDS011;17683;53.360;9.736;2024-01-30T01:34:42;10.38;;;6.47;;
30647;SDS011;17683;53.360;9.736;2024-01-30T01:37:07;13.10;;;7.32;;
30647;SDS011;17683;53.360;9.736;2024-01-30T01:39:33;11.18;;;7.15;;
30647;SDS011;17683;53.360;9.736;2024-01-30T01:41:59;16.15;;;7.20;;
30647;SDS011;17683;53.360;9.736;2024-01-30T01:44:25;9.57;;;6.63;;
30647;SDS011;17683;53.360;9.736;2024-01-30T01:46:52;17.70;;;7.72;;
30647;SDS011;17683;53.360;9.736;2024-01-30T01:49:18;10.85;;;7.45;;
30647;SDS011;17683;53.360;9.736;2024-01-30T01:51:45;10.13;;;7.18;;
30647;SDS011;17683;53.360;9.736;2024-01-30T01:54:13;11.30;;;7.85;;
30647;SDS011;17683;53.360;9.736;2024-01-30T01:56:40;15.45;;;7.85;;
30647;SDS011;17683;53.360;9.736;2024-01-30T01:59:08;9.95;;;7.85;;
30647;SDS011;17683;53.360;9.736;2024-01-30T02:01:36;13.73;;;7.57;;
30647;SDS011;17683;53.360;9.736;2024-01-30T02:04:02;12.07;;;8.45;;
30647;SDS011;17683;53.360;9.736;2024-01-30T02:06:28;10.52;;;7.85;;
30647;SDS011;17683;53.360;9.736;2024-01-30T02:08:54;12.60;;;7.53;;
30647;SDS011;17683;53.360;9.736;2024-01-30T02:11:21;12.35;;;7.47;;
30647;SDS011;17683;53.360;9.736;2024-01-30T02:13:48;11.70;;;8.52;;
30647;SDS011;17683;53.360;9.736;2024-01-30T02:16:14;11.70;;;7.90;;
30647;SDS011;17683;53.360;9.736;2024-01-30T02:18:40;12.75;;;8.20;;
30647;SDS011;17683;53.360;9.736;2024-01-30T02:21:10;14.93;;;7.53;;
30647;SDS011;17683;53.360;9.736;2024-01-30T02:23:36;11.57;;;8.05;;
30647;SDS011;17683;53.360;9.736;2024-01-30T02:26:03;12.95;;;8.25;;
30647;SDS011;17683;53.360;9.736;2024-01-30T02:28:28;11.70;;;8.00;;
30647;SDS011;17683;53.360;9.736;2024-01-30T02:30:54;10.95;;;8.05;;
30647;SDS011;17683;53.360;9.736;2024-01-30T02:33:20;13.90;;;8.25;;
30647;SDS011;17683;53.360;9.736;2024-01-30T02:35:47;12.90;;;7.95;;
30647;SDS011;17683;53.360;9.736;2024-01-30T02:38:13;13.48;;;8.18;;
30647;SDS011;17683;53.360;9.736;2024-01-30T02:40:40;10.95;;;7.65;;
30647;SDS011;17683;53.360;9.736;2024-01-30T02:43:06;10.68;;;8.35;;
30647;SDS011;17683;53.360;9.736;2024-01-30T02:45:31;14.13;;;8.52;;
30647;SDS011;17683;53.360;9.736;2024-01-30T02:47:57;13.20;;;8.85;;
30647;SDS011;17683;53.360;9.736;2024-01-30T02:50:23;14.95;;;8.77;;
30647;SDS011;17683;53.360;9.736;2024-01-30T02:52:48;11.60;;;7.25;;
30647;SDS011;17683;53.360;9.736;2024-01-30T02:55:14;13.80;;;8.48;;
30647;SDS011;17683;53.360;9.736;2024-01-30T02:57:42;12.50;;;8.32;;
30647;SDS011;17683;53.360;9.736;2024-01-30T03:00:08;9.95;;;8.10;;
30647;SDS011;17683;53.360;9.736;2024-01-30T03:02:35;12.30;;;8.68;;
30647;SDS011;17683;53.360;9.736;2024-01-30T03:05:01;11.48;;;8.13;;
30647;SDS011;17683;53.360;9.736;2024-01-30T03:07:28;11.63;;;8.30;;
30647;SDS011;17683;53.360;9.736;2024-01-30T03:09:54;12.88;;;8.38;;
30647;SDS011;17683;53.360;9.736;2024-01-30T03:12:20;16.80;;;8.25;;
30647;SDS011;17683;53.360;9.736;2024-01-30T03:14:46;10.60;;;7.43;;
30647;SDS011;17683;53.360;9.736;2024-01-30T03:17:12;11.25;;;8.50;;
30647;SDS011;17683;53.360;9.736;2024-01-30T03:19:38;10.70;;;8.07;;
30647;SDS011;17683;53.360;9.736;2024-01-30T03:22:04;13.13;;;8.25;;
30647;SDS011;17683;53.360;9.736;2024-01-30T03:24:30;10.45;;;8.00;;
30647;SDS011;17683;53.360;9.736;2024-01-30T03:26:56;10.65;;;8.30;;
30647;SDS011;17683;53.360;9.736;2024-01-30T03:29:21;11.80;;;8.20;;
30647;SDS011;17683;53.360;9.736;2024-01-30T03:31:47;11.05;;;8.07;;
30647;SDS011;17683;53.360;9.736;2024-01-30T03:34:13;12.75;;;8.90;;
30647;SDS011;17683;53.360;9.736;2024-01-30T03:36:38;12.80;;;8.82;;
30647;SDS011;17683;53.360;9.736;2024-01-30T03:39:04;14.38;;;8.45;;
30647;SDS011;17683;53.360;9.736;2024-01-30T03:41:31;11.85;;;8.52;;
30647;SDS011;17683;53.360;9.736;2024-01-30T03:43:57;12.88;;;8.70;;
30647;SDS011;17683;53.360;9.736;2024-01-30T03:46:24;10.48;;;7.95;;
30647;SDS011;17683;53.360;9.736;2024-01-30T03:48:50;15.02;;;9.43;;
30647;SDS011;17683;53.360;9.736;2024-01-30T03:51:15;13.80;;;7.82;;
30647;SDS011;17683;53.360;9.736;2024-01-30T03:53:44;13.38;;;8.38;;
30647;SDS011;17683;53.360;9.736;2024-01-30T03:56:13;13.60;;;8.45;;
30647;SDS011;17683;53.360;9.736;2024-01-30T03:58:39;10.77;;;8.68;;
30647;SDS011;17683;53.360;9.736;2024-01-30T04:01:05;10.52;;;8.70;;
30647;SDS011;17683;53.360;9.736;2024-01-30T04:03:31;11.95;;;9.05;;
30647;SDS011;17683;53.360;9.736;2024-01-30T04:05:56;12.35;;;9.07;;
30647;SDS011;17683;53.360;9.736;2024-01-30T04:08:22;13.35;;;9.10;;
30647;SDS011;17683;53.360;9.736;2024-01-30T04:10:48;14.90;;;8.65;;
30647;SDS011;17683;53.360;9.736;2024-01-30T04:13:13;17.02;;;9.27;;
30647;SDS011;17683;53.360;9.736;2024-01-30T04:15:39;13.32;;;9.32;;
30647;SDS011;17683;53.360;9.736;2024-01-30T04:18:05;14.02;;;9.05;;
30647;SDS011;17683;53.360;9.736;2024-01-30T04:20:31;12.07;;;8.10;;
30647;SDS011;17683;53.360;9.736;2024-01-30T04:22:57;13.27;;;8.50;;
30647;SDS011;17683;53.360;9.736;2024-01-30T04:25:22;13.55;;;8.50;;
30647;SDS011;17683;53.360;9.736;2024-01-30T04:27:48;12.90;;;8.85;;
30647;SDS011;17683;53.360;9.736;2024-01-30T04:30:14;11.48;;;9.00;;
30647;SDS011;17683;53.360;9.736;2024-01-30T04:32:40;13.90;;;9.13;;
30647;SDS011;17683;53.360;9.736;2024-01-30T04:35:06;12.90;;;8.75;;
30647;SDS011;17683;53.360;9.736;2024-01-30T04:37:32;12.98;;;9.02;;
30647;SDS011;17683;53.360;9.736;2024-01-30T04:39:58;15.52;;;9.48;;
30647;SDS011;17683;53.360;9.736;2024-01-30T04:42:24;16.67;;;9.13;;
30647;SDS011;17683;53.360;9.736;2024-01-30T04:44:49;12.05;;;9.18;;
30647;SDS011;17683;53.360;9.736;2024-01-30T04:47:15;15.32;;;9.73;;
30647;SDS011;17683;53.360;9.736;2024-01-30T04:49:41;12.52;;;9.50;;
30647;SDS011;17683;53.360;9.736;2024-01-30T04:52:07;13.50;;;9.75;;
30647;SDS011;17683;53.360;9.736;2024-01-30T04:54:34;12.38;;;9.40;;
30647;SDS011;17683;53.360;9.736;2024-01-30T04:57:03;15.48;;;9.88;;
30647;SDS011;17683;53.360;9.736;2024-01-30T04:59:33;14.63;;;10.43;;
30647;SDS011;17683;53.360;9.736;2024-01-30T05:01:59;16.17;;;10.27;;
30647;SDS011;17683;53.360;9.736;2024-01-30T05:04:25;16.98;;;11.52;;
30647;SDS011;17683;53.360;9.736;2024-01-30T05:06:50;16.08;;;10.60;;
30647;SDS011;17683;53.360;9.736;2024-01-30T05:09:16;17.00;;;11.63;;
30647;SDS011;17683;53.360;9.736;2024-01-30T05:11:42;17.20;;;10.93;;
30647;SDS011;17683;53.360;9.736;2024-01-30T05:14:08;16.92;;;11.98;;
30647;SDS011;17683;53.360;9.736;2024-01-30T05:16:37;14.25;;;10.45;;
30647;SDS011;17683;53.360;9.736;2024-01-30T05:19:03;14.88;;;10.35;;
30647;SDS011;17683;53.360;9.736;2024-01-30T05:21:28;17.88;;;11.95;;
30647;SDS011;17683;53.360;9.736;2024-01-30T05:23:54;17.60;;;11.55;;
30647;SDS011;17683;53.360;9.736;2024-01-30T05:26:20;16.83;;;11.65;;
30647;SDS011;17683;53.360;9.736;2024-01-30T05:28:47;18.20;;;11.68;;
30647;SDS011;17683;53.360;9.736;2024-01-30T05:31:13;18.27;;;12.13;;
30647;SDS011;17683;53.360;9.736;2024-01-30T05:33:40;14.98;;;9.70;;
30647;SDS011;17683;53.360;9.736;2024-01-30T05:36:06;17.83;;;12.48;;
30647;SDS011;17683;53.360;9.736;2024-01-30T05:38:32;13.05;;;10.05;;
30647;SDS011;17683;53.360;9.736;2024-01-30T05:40:57;13.82;;;9.98;;
30647;SDS011;17683;53.360;9.736;2024-01-30T05:43:24;17.08;;;11.07;;
30647;SDS011;17683;53.360;9.736;2024-01-30T05:45:49;17.88;;;11.43;;
30647;SDS011;17683;53.360;9.736;2024-01-30T05:48:15;15.02;;;10.73;;
30647;SDS011;17683;53.360;9.736;2024-01-30T05:50:41;14.40;;;10.45;;
30647;SDS011;17683;53.360;9.736;2024-01-30T05:53:07;16.23;;;11.10;;
30647;SDS011;17683;53.360;9.736;2024-01-30T05:55:33;16.55;;;11.68;;
30647;SDS011;17683;53.360;9.736;2024-01-30T05:57:58;18.48;;;12.43;;
30647;SDS011;17683;53.360;9.736;2024-01-30T06:00:24;17.77;;;11.77;;
30647;SDS011;17683;53.360;9.736;2024-01-30T06:02:50;15.57;;;11.48;;
30647;SDS011;17683;53.360;9.736;2024-01-30T06:05:15;15.43;;;11.15;;
30647;SDS011;17683;53.360;9.736;2024-01-30T06:07:41;15.90;;;10.35;;
30647;SDS011;17683;53.360;9.736;2024-01-30T06:10:07;16.15;;;11.05;;
30647;SDS011;17683;53.360;9.736;2024-01-30T06:12:34;14.50;;;10.73;;
30647;SDS011;17683;53.360;9.736;2024-01-30T06:15:00;15.75;;;10.57;;
30647;SDS011;17683;53.360;9.736;2024-01-30T06:17:26;18.67;;;11.82;;
30647;SDS011;17683;53.360;9.736;2024-01-30T06:19:52;16.65;;;11.25;;
30647;SDS011;17683;53.360;9.736;2024-01-30T06:22:19;17.30;;;12.15;;
30647;SDS011;17683;53.360;9.736;2024-01-30T06:24:45;17.00;;;11.50;;
30647;SDS011;17683;53.360;9.736;2024-01-30T06:27:14;14.73;;;11.38;;
30647;SDS011;17683;53.360;9.736;2024-01-30T06:29:40;16.10;;;11.50;;
30647;SDS011;17683;53.360;9.736;2024-01-30T06:32:08;18.20;;;11.27;;
30647;SDS011;17683;53.360;9.736;2024-01-30T06:34:33;17.23;;;12.30;;
30647;SDS011;17683;53.360;9.736;2024-01-30T06:36:59;16.08;;;11.05;;
30647;SDS011;17683;53.360;9.736;2024-01-30T06:39:26;18.10;;;10.75;;
30647;SDS011;17683;53.360;9.736;2024-01-30T06:41:52;17.98;;;10.85;;
30647;SDS011;17683;53.360;9.736;2024-01-30T06:44:18;13.88;;;10.90;;
30647;SDS011;17683;53.360;9.736;2024-01-30T06:46:43;17.17;;;12.38;;
30647;SDS011;17683;53.360;9.736;2024-01-30T06:49:09;16.17;;;10.90;;
30647;SDS011;17683;53.360;9.736;2024-01-30T06:51:35;16.75;;;11.40;;
30647;SDS011;17683;53.360;9.736;2024-01-30T06:54:01;16.08;;;11.23;;
30647;SDS011;17683;53.360;9.736;2024-01-30T06:56:27;16.63;;;12.00;;
30647;SDS011;17683;53.360;9.736;2024-01-30T06:58:53;17.65;;;12.13;;
30647;SDS011;17683;53.360;9.736;2024-01-30T07:01:19;18.63;;;12.23;;
30647;SDS011;17683;53.360;9.736;2024-01-30T07:03:45;20.35;;;12.45;;
30647;SDS011;17683;53.360;9.736;2024-01-30T07:06:11;18.50;;;11.95;;
30647;SDS011;17683;53.360;9.736;2024-01-30T07:08:37;22.50;;;11.38;;
30647;SDS011;17683;53.360;9.736;2024-01-30T07:11:05;19.95;;;12.60;;
30647;SDS011;17683;53.360;9.736;2024-01-30T07:13:32;20.52;;;12.45;;
30647;SDS011;17683;53.360;9.736;2024-01-30T07:15:57;16.67;;;12.55;;
30647;SDS011;17683;53.360;9.736;2024-01-30T07:18:23;18.05;;;12.27;;
30647;SDS011;17683;53.360;9.736;2024-01-30T07:20:49;17.60;;;11.60;;
30647;SDS011;17683;53.360;9.736;2024-01-30T07:23:15;20.65;;;11.98;;
30647;SDS011;17683;53.360;9.736;2024-01-30T07:25:45;16.13;;;12.10;;
30647;SDS011;17683;53.360;9.736;2024-01-30T07:28:13;18.77;;;12.70;;
30647;SDS011;17683;53.360;9.736;2024-01-30T07:30:42;22.00;;;12.90;;
30647;SDS011;17683;53.360;9.736;2024-01-30T07:33:08;17.17;;;11.43;;
30647;SDS011;17683;53.360;9.736;2024-01-30T07:35:34;19.17;;;12.15;;
30647;SDS011;17683;53.360;9.736;2024-01-30T07:38:01;20.92;;;13.25;;
30647;SDS011;17683;53.360;9.736;2024-01-30T07:40:27;20.83;;;12.85;;
30647;SDS011;17683;53.360;9.736;2024-01-30T07:42:55;17.75;;;12.80;;
30647;SDS011;17683;53.360;9.736;2024-01-30T07:45:21;21.02;;;13.48;;
30647;SDS011;17683;53.360;9.736;2024-01-30T07:47:49;22.02;;;13.45;;
30647;SDS011;17683;53.360;9.736;2024-01-30T07:50:15;22.10;;;12.98;;
30647;SDS011;17683;53.360;9.736;2024-01-30T07:52:41;18.85;;;12.00;;
30647;SDS011;17683;53.360;9.736;2024-01-30T07:55:07;17.63;;;11.95;;
30647;SDS011;17683;53.360;9.736;2024-01-30T07:57:33;21.23;;;13.05;;
30647;SDS011;17683;53.360;9.736;2024-01-30T07:59:59;19.65;;;13.35;;
30647;SDS011;17683;53.360;9.736;2024-01-30T08:02:26;15.52;;;11.82;;
30647;SDS011;17683;53.360;9.736;2024-01-30T08:04:51;21.55;;;13.77;;
30647;SDS011;17683;53.360;9.736;2024-01-30T08:07:17;21.52;;;13.60;;
30647;SDS011;17683;53.360;9.736;2024-01-30T08:09:43;19.52;;;11.98;;
30647;SDS011;17683;53.360;9.736;2024-01-30T08:12:09;16.67;;;12.43;;
30647;SDS011;17683;53.360;9.736;2024-01-30T08:14:35;17.35;;;11.95;;
30647;SDS011;17683;53.360;9.736;2024-01-30T08:17:00;20.35;;;13.10;;
30647;SDS011;17683;53.360;9.736;2024-01-30T08:19:26;17.45;;;11.70;;
30647;SDS011;17683;53.360;9.736;2024-01-30T08:21:52;19.90;;;12.15;;
30647;SDS011;17683;53.360;9.736;2024-01-30T08:24:18;19.95;;;13.05;;
30647;SDS011;17683;53.360;9.736;2024-01-30T08:26:43;20.65;;;13.77;;
30647;SDS011;17683;53.360;9.736;2024-01-30T08:29:09;20.77;;;13.65;;
30647;SDS011;17683;53.360;9.736;2024-01-30T08:31:35;19.67;;;13.82;;
30647;SDS011;17683;53.360;9.736;2024-01-30T08:34:01;18.27;;;12.07;;
30647;SDS011;17683;53.360;9.736;2024-01-30T08:36:27;24.13;;;14.32;;
30647;SDS011;17683;53.360;9.736;2024-01-30T08:38:52;22.02;;;13.35;;
30647;SDS011;17683;53.360;9.736;2024-01-30T08:41:18;21.40;;;13.60;;
30647;SDS011;17683;53.360;9.736;2024-01-30T08:43:44;18.85;;;13.38;;
30647;SDS011;17683;53.360;9.736;2024-01-30T08:46:10;16.50;;;12.88;;
30647;SDS011;17683;53.360;9.736;2024-01-30T08:48:36;20.73;;;13.63;;
30647;SDS011;17683;53.360;9.736;2024-01-30T08:51:02;24.25;;;15.55;;
30647;SDS011;17683;53.360;9.736;2024-01-30T08:53:28;18.38;;;13.25;;
30647;SDS011;17683;53.360;9.736;2024-01-30T08:55:53;22.73;;;15.52;;
30647;SDS011;17683;53.360;9.736;2024-01-30T08:58:24;23.70;;;14.57;;
30647;SDS011;17683;53.360;9.736;2024-01-30T09:00:49;21.50;;;14.35;;
30647;SDS011;17683;53.360;9.736;2024-01-30T09:03:16;22.88;;;13.45;;
30647;SDS011;17683;53.360;9.736;2024-01-30T09:05:42;23.27;;;15.05;;
30647;SDS011;17683;53.360;9.736;2024-01-30T09:08:08;19.50;;;13.77;;
30647;SDS011;17683;53.360;9.736;2024-01-30T09:10:35;22.52;;;15.23;;
30647;SDS011;17683;53.360;9.736;2024-01-30T09:13:01;23.25;;;13.65;;
30647;SDS011;17683;53.360;9.736;2024-01-30T09:15:26;22.30;;;13.93;;
30647;SDS011;17683;53.360;9.736;2024-01-30T09:17:52;21.02;;;14.80;;
30647;SDS011;17683;53.360;9.736;2024-01-30T09:20:18;17.90;;;12.60;;
30647;SDS011;17683;53.360;9.736;2024-01-30T09:22:45;18.52;;;13.73;;
30647;SDS011;17683;53.360;9.736;2024-01-30T09:25:11;19.85;;;13.93;;
30647;SDS011;17683;53.360;9.736;2024-01-30T09:27:36;26.58;;;16.23;;
30647;SDS011;17683;53.360;9.736;2024-01-30T09:30:02;22.10;;;15.00;;
30647;SDS011;17683;53.360;9.736;2024-01-30T09:32:29;22.70;;;15.10;;
30647;SDS011;17683;53.360;9.736;2024-01-30T09:34:54;20.73;;;14.75;;
30647;SDS011;17683;53.360;9.736;2024-01-30T09:37:20;18.02;;;13.52;;
30647;SDS011;17683;53.360;9.736;2024-01-30T09:39:49;20.70;;;13.60;;
30647;SDS011;17683;53.360;9.736;2024-01-30T09:42:18;19.23;;;14.02;;
30647;SDS011;17683;53.360;9.736;2024-01-30T09:44:53;20.58;;;13.40;;
30647;SDS011;17683;53.360;9.736;2024-01-30T09:47:19;19.17;;;14.35;;
30647;SDS011;17683;53.360;9.736;2024-01-30T09:49:45;30.60;;;14.60;;
30647;SDS011;17683;53.360;9.736;2024-01-30T09:52:11;20.27;;;14.45;;
30647;SDS011;17683;53.360;9.736;2024-01-30T09:54:37;21.25;;;13.85;;
30647;SDS011;17683;53.360;9.736;2024-01-30T09:57:04;20.67;;;13.82;;
30647;SDS011;17683;53.360;9.736;2024-01-30T09:59:30;22.23;;;14.32;;
30647;SDS011;17683;53.360;9.736;2024-01-30T10:01:57;20.85;;;14.15;;
30647;SDS011;17683;53.360;9.736;2024-01-30T10:04:23;19.45;;;14.10;;
30647;SDS011;17683;53.360;9.736;2024-01-30T10:06:49;19.90;;;13.20;;
30647;SDS011;17683;53.360;9.736;2024-01-30T10:09:16;20.02;;;12.98;;
30647;SDS011;17683;53.360;9.736;2024-01-30T10:11:41;20.05;;;13.15;;
30647;SDS011;17683;53.360;9.736;2024-01-30T10:14:07;21.85;;;12.93;;
30647;SDS011;17683;53.360;9.736;2024-01-30T10:16:36;18.70;;;13.07;;
30647;SDS011;17683;53.360;9.736;2024-01-30T10:19:01;16.27;;;11.48;;
30647;SDS011;17683;53.360;9.736;2024-01-30T10:21:28;18.85;;;12.15;;
30647;SDS011;17683;53.360;9.736;2024-01-30T10:23:55;19.67;;;13.20;;
30647;SDS011;17683;53.360;9.736;2024-01-30T10:26:21;18.50;;;11.88;;
30647;SDS011;17683;53.360;9.736;2024-01-30T10:28:47;15.63;;;11.18;;
30647;SDS011;17683;53.360;9.736;2024-01-30T10:31:17;17.17;;;11.95;;
30647;SDS011;17683;53.360;9.736;2024-01-30T10:33:46;17.02;;;11.30;;
30647;SDS011;17683;53.360;9.736;2024-01-30T10:36:13;21.17;;;13.20;;
30647;SDS011;17683;53.360;9.736;2024-01-30T10:38:40;19.23;;;11.75;;
30647;SDS011;17683;53.360;9.736;2024-01-30T10:41:08;16.08;;;11.40;;
30647;SDS011;17683;53.360;9.736;2024-01-30T10:43:42;19.23;;;11.80;;
30647;SDS011;17683;53.360;9.736;2024-01-30T10:46:19;16.73;;;12.02;;
30647;SDS011;17683;53.360;9.736;2024-01-30T10:48:57;17.67;;;11.50;;
30647;SDS011;17683;53.360;9.736;2024-01-30T10:51:24;16.75;;;12.00;;
30647;SDS011;17683;53.360;9.736;2024-01-30T10:53:55;17.08;;;11.93;;
30647;SDS011;17683;53.360;9.736;2024-01-30T10:56:21;15.23;;;11.20;;
30647;SDS011;17683;53.360;9.736;2024-01-30T10:58:49;18.02;;;11.77;;
30647;SDS011;17683;53.360;9.736;2024-01-30T11:01:18;21.58;;;12.52;;
30647;SDS011;17683;53.360;9.736;2024-01-30T11:03:57;17.58;;;11.95;;
30647;SDS011;17683;53.360;9.736;2024-01-30T11:06:23;14.70;;;10.88;;
30647;SDS011;17683;53.360;9.736;2024-01-30T11:09:02;15.63;;;11.48;;
30647;SDS011;17683;53.360;9.736;2024-01-30T11:11:46;17.73;;;11.18;;
30647;SDS011;17683;53.360;9.736;2024-01-30T11:14:30;16.48;;;11.05;;
30647;SDS011;17683;53.360;9.736;2024-01-30T11:16:59;15.27;;;10.55;;
30647;SDS011;17683;53.360;9.736;2024-01-30T11:19:30;20.33;;;12.40;;
30647;SDS011;17683;53.360;9.736;2024-01-30T11:21:56;21.27;;;12.32;;
30647;SDS011;17683;53.360;9.736;2024-01-30T11:24:23;17.52;;;11.75;;
30647;SDS011;17683;53.360;9.736;2024-01-30T11:26:49;23.95;;;12.45;;
30647;SDS011;17683;53.360;9.736;2024-01-30T11:29:24;16.55;;;11.50;;
30647;SDS011;17683;53.360;9.736;2024-01-30T11:31:57;18.35;;;12.98;;
30647;SDS011;17683;53.360;9.736;2024-01-30T11:34:24;23.60;;;14.80;;
30647;SDS011;17683;53.360;9.736;2024-01-30T11:36:57;24.10;;;14.10;;
30647;SDS011;17683;53.360;9.736;2024-01-30T11:39:25;22.88;;;13.80;;
30647;SDS011;17683;53.360;9.736;2024-01-30T11:41:51;18.67;;;12.05;;
30647;SDS011;17683;53.360;9.736;2024-01-30T11:44:21;18.90;;;13.07;;
30647;SDS011;17683;53.360;9.736;2024-01-30T11:46:48;18.55;;;12.18;;
30647;SDS011;17683;53.360;9.736;2024-01-30T11:49:14;17.95;;;12.82;;
30647;SDS011;17683;53.360;9.736;2024-01-30T11:51:41;21.08;;;12.95;;
30647;SDS011;17683;53.360;9.736;2024-01-30T11:54:07;19.00;;;12.18;;
30647;SDS011;17683;53.360;9.736;2024-01-30T11:56:33;18.10;;;11.25;;
30647;SDS011;17683;53.360;9.736;2024-01-30T11:58:59;18.40;;;12.43;;
30647;SDS011;17683;53.360;9.736;2024-01-30T12:01:26;18.02;;;11.63;;
30647;SDS011;17683;53.360;9.736;2024-01-30T12:03:52;15.85;;;11.07;;
30647;SDS011;17683;53.360;9.736;2024-01-30T12:06:18;15.00;;;10.52;;
30647;SDS011;17683;53.360;9.736;2024-01-30T12:08:55;14.00;;;10.98;;
30647;SDS011;17683;53.360;9.736;2024-01-30T12:11:25;17.35;;;11.57;;
30647;SDS011;17683;53.360;9.736;2024-01-30T12:13:52;17.60;;;10.82;;
30647;SDS011;17683;53.360;9.736;2024-01-30T12:16:19;20.92;;;13.48;;
30647;SDS011;17683;53.360;9.736;2024-01-30T12:18:45;21.52;;;13.35;;
30647;SDS011;17683;53.360;9.736;2024-01-30T12:21:11;14.30;;;11.05;;
30647;SDS011;17683;53.360;9.736;2024-01-30T12:23:37;13.93;;;11.45;;
30647;SDS011;17683;53.360;9.736;2024-01-30T12:26:03;19.80;;;10.88;;
30647;SDS011;17683;53.360;9.736;2024-01-30T12:28:32;13.68;;;10.45;;
30647;SDS011;17683;53.360;9.736;2024-01-30T12:31:04;15.52;;;10.80;;
30647;SDS011;17683;53.360;9.736;2024-01-30T12:33:30;17.15;;;10.82;;
30647;SDS011;17683;53.360;9.736;2024-01-30T12:35:57;14.77;;;10.32;;
30647;SDS011;17683;53.360;9.736;2024-01-30T12:38:26;17.83;;;10.23;;
30647;SDS011;17683;53.360;9.736;2024-01-30T12:40:55;16.23;;;10.02;;
30647;SDS011;17683;53.360;9.736;2024-01-30T12:43:24;14.00;;;10.13;;
30647;SDS011;17683;53.360;9.736;2024-01-30T12:45:52;13.80;;;10.10;;
30647;SDS011;17683;53.360;9.736;2024-01-30T12:48:18;24.42;;;11.52;;
30647;SDS011;17683;53.360;9.736;2024-01-30T12:50:43;17.15;;;10.57;;
30647;SDS011;17683;53.360;9.736;2024-01-30T12:53:09;14.10;;;10.60;;
30647;SDS011;17683;53.360;9.736;2024-01-30T12:55:35;17.17;;;10.60;;
30647;SDS011;17683;53.360;9.736;2024-01-30T12:58:01;16.40;;;9.80;;
30647;SDS011;17683;53.360;9.736;2024-01-30T13:00:28;12.15;;;9.38;;
30647;SDS011;17683;53.360;9.736;2024-01-30T13:02:53;16.02;;;9.75;;
30647;SDS011;17683;53.360;9.736;2024-01-30T13:05:19;14.73;;;10.10;;
30647;SDS011;17683;53.360;9.736;2024-01-30T13:07:45;18.35;;;10.32;;
30647;SDS011;17683;53.360;9.736;2024-01-30T13:10:11;14.15;;;10.93;;
30647;SDS011;17683;53.360;9.736;2024-01-30T13:12:37;19.63;;;10.82;;
30647;SDS011;17683;53.360;9.736;2024-01-30T13:15:03;12.50;;;9.98;;
30647;SDS011;17683;53.360;9.736;2024-01-30T13:17:30;12.95;;;9.57;;
30647;SDS011;17683;53.360;9.736;2024-01-30T13:19:56;13.05;;;10.05;;
30647;SDS011;17683;53.360;9.736;2024-01-30T13:22:23;15.48;;;10.13;;
30647;SDS011;17683;53.360;9.736;2024-01-30T13:24:49;13.95;;;9.32;;
30647;SDS011;17683;53.360;9.736;2024-01-30T13:27:15;14.48;;;9.90;;
30647;SDS011;17683;53.360;9.736;2024-01-30T13:29:41;14.80;;;10.07;;
30647;SDS011;17683;53.360;9.736;2024-01-30T13:32:09;15.25;;;9.32;;
30647;SDS011;17683;53.360;9.736;2024-01-30T13:34:35;15.00;;;10.48;;
30647;SDS011;17683;53.360;9.736;2024-01-30T13:37:00;14.05;;;9.48;;
30647;SDS011;17683;53.360;9.736;2024-01-30T13:39:26;14.18;;;10.35;;
30647;SDS011;17683;53.360;9.736;2024-01-30T13:41:53;12.95;;;9.05;;
30647;SDS011;17683;53.360;9.736;2024-01-30T13:44:18;17.73;;;10.18;;
30647;SDS011;17683;53.360;9.736;2024-01-30T13:46:46;13.82;;;9.38;;
30647;SDS011;17683;53.360;9.736;2024-01-30T13:49:12;14.82;;;10.50;;
30647;SDS011;17683;53.360;9.736;2024-01-30T13:51:37;15.20;;;9.65;;
30647;SDS011;17683;53.360;9.736;2024-01-30T13:54:03;13.45;;;9.82;;
30647;SDS011;17683;53.360;9.736;2024-01-30T13:56:29;13.73;;;9.50;;
30647;SDS011;17683;53.360;9.736;2024-01-30T13:58:55;15.55;;;10.10;;
30647;SDS011;17683;53.360;9.736;2024-01-30T14:01:21;18.00;;;10.07;;
30647;SDS011;17683;53.360;9.736;2024-01-30T14:03:47;16.17;;;9.63;;
30647;SDS011;17683;53.360;9.736;2024-01-30T14:06:14;15.93;;;10.13;;
30647;SDS011;17683;53.360;9.736;2024-01-30T14:08:39;14.07;;;10.90;;
30647;SDS011;17683;53.360;9.736;2024-01-30T14:11:05;16.60;;;10.73;;
30647;SDS011;17683;53.360;9.736;2024-01-30T14:13:31;15.40;;;10.55;;
30647;SDS011;17683;53.360;9.736;2024-01-30T14:15:58;27.30;;;12.57;;
30647;SDS011;17683;53.360;9.736;2024-01-30T14:18:24;17.50;;;11.40;;
30647;SDS011;17683;53.360;9.736;2024-01-30T14:20:50;19.77;;;11.15;;
30647;SDS011;17683;53.360;9.736;2024-01-30T14:23:17;17.77;;;10.60;;
30647;SDS011;17683;53.360;9.736;2024-01-30T14:25:43;19.23;;;10.77;;